Time;durP1;ratioP1;P1;durP2;ratioP2;P2;SDS_P1;SDS_P2;PMS_P1;PMS_P2;Temp;Humidity;BMP_temperature;BMP_pressure;BME280_temperature;BME280_humidity;BME280_pressure;Samples;Min_cycle;Max_cycle;Signal;HPM_P1;HPM_P2
2022/09/03 00:02:26;;;;;;;6.13;4.47;;;20.30;99.90;;;20.79;47.92;100896.66;5113589;28;20048;-72
2022/09/03 00:05:04;;;;;;;5.18;3.83;;;20.30;99.90;;;20.85;47.68;100893.69;5113514;28;20039;-72
2022/09/03 00:07:46;;;;;;;9.80;4.35;;;20.40;99.90;;;20.72;47.42;100874.56;5113931;28;20055;-72
2022/09/03 00:10:23;;;;;;;6.45;4.15;;;20.50;99.90;;;20.74;47.67;100887.91;5113491;28;20036;-72
2022/09/03 00:12:59;;;;;;;7.72;4.55;;;20.40;99.90;;;20.57;48.38;100884.19;5113663;28;20047;-72
2022/09/03 00:15:32;;;;;;;10.52;4.47;;;20.30;99.90;;;20.69;48.05;100886.31;5113360;28;20092;-72
2022/09/03 00:18:06;;;;;;;8.23;4.28;;;20.30;99.90;;;20.58;48.10;100885.94;5111894;28;20111;-72
2022/09/03 00:20:40;;;;;;;7.80;4.03;;;20.20;99.90;;;20.63;47.89;100875.84;5113363;28;20040;-72
2022/09/03 00:23:17;;;;;;;10.63;5.00;;;20.20;99.90;;;20.37;48.06;100860.03;5113097;28;20463;-72
2022/09/03 00:25:50;;;;;;;6.32;4.07;;;20.20;99.90;;;20.53;48.50;100884.41;5113433;28;20043;-72
2022/09/03 00:28:26;;;;;;;6.82;4.82;;;20.10;99.90;;;20.49;48.88;100877.41;5113526;28;20047;-71
2022/09/03 00:31:07;;;;;;;8.90;4.97;;;20.10;99.90;;;20.46;48.77;100877.56;5113205;28;20039;-71
2022/09/03 00:33:39;;;;;;;6.70;4.80;;;20.10;99.90;;;20.43;48.69;100875.88;5113139;28;20071;-72
2022/09/03 00:36:16;;;;;;;8.88;4.20;;;20.10;99.90;;;20.41;48.86;100863.44;5113162;28;20142;-71
2022/09/03 00:38:44;;;;;;;7.35;4.50;;;20.00;99.90;;;20.50;48.40;100873.75;5113112;28;20071;-72
2022/09/03 00:41:32;;;;;;;5.40;4.10;;;20.10;99.90;;;20.45;48.61;100881.19;5111792;28;20047;-72
2022/09/03 00:44:30;;;;;;;7.65;4.57;;;20.10;99.90;;;20.51;48.55;100880.91;5113196;28;20489;-71
2022/09/03 00:47:10;;;;;;;16.77;4.95;;;20.10;99.90;;;20.33;49.11;100879.91;5112736;28;20139;-71
2022/09/03 00:49:54;;;;;;;8.85;3.92;;;19.90;99.90;;;20.29;48.71;100870.22;5112940;28;20126;-71
2022/09/03 00:52:38;;;;;;;7.70;4.10;;;19.90;99.90;;;20.19;49.49;100885.00;5112955;28;20134;-72
2022/09/03 00:55:15;;;;;;;11.65;4.15;;;19.80;99.90;;;20.16;49.28;100878.88;5111804;28;20051;-72
2022/09/03 00:57:58;;;;;;;5.30;4.20;;;19.70;99.90;;;20.22;49.18;100884.88;5113228;28;20075;-71
2022/09/03 01:00:27;;;;;;;8.00;4.05;;;19.80;99.90;;;20.20;49.16;100881.41;5112742;28;20039;-71
2022/09/03 01:03:07;;;;;;;8.10;4.32;;;19.80;99.90;;;20.17;49.21;100886.00;5112998;28;20097;-72
2022/09/03 01:05:52;;;;;;;11.40;4.75;;;19.70;99.90;;;20.06;49.54;100883.75;5112688;28;20050;-72
2022/09/03 01:08:44;;;;;;;5.17;4.10;;;19.70;99.90;;;20.00;49.90;100864.34;5112856;28;20048;-72
2022/09/03 01:11:21;;;;;;;;;;;19.60;99.90;;;20.07;49.51;100873.91;5113689;28;20054;-72
2022/09/03 01:14:05;;;;;;;5.15;4.15;;;19.60;99.90;;;19.98;49.12;100856.34;5112895;28;19958;-71
2022/09/03 01:16:41;;;;;;;8.48;4.38;;;19.70;99.90;;;19.98;49.93;100880.53;5112801;28;20105;-72
2022/09/03 01:19:44;;;;;;;5.97;3.97;;;19.60;99.90;;;20.01;50.28;100879.53;5112624;28;20435;-72
2022/09/03 01:22:43;;;;;;;6.88;4.75;;;19.50;99.90;;;19.88;50.33;100876.47;5101116;28;20101;-72
2022/09/03 01:25:23;;;;;;;7.53;4.20;;;19.50;99.90;;;19.71;50.72;100887.06;5112576;28;20043;-72
2022/09/03 01:28:12;;;;;;;6.95;4.25;;;19.30;99.90;;;19.59;50.74;100884.88;5112839;28;20449;-72
2022/09/03 01:30:47;;;;;;;8.00;4.25;;;19.20;99.90;;;19.63;50.81;100881.13;5114725;28;20104;-72
2022/09/03 01:33:25;;;;;;;5.30;4.35;;;19.20;99.90;;;19.61;50.90;100888.38;5116603;28;20047;-71
2022/09/03 01:36:07;;;;;;;7.82;4.45;;;19.20;99.90;;;19.58;50.61;100873.28;5116419;28;20059;-72
2022/09/03 01:38:42;;;;;;;7.95;4.47;;;19.30;99.90;;;19.55;50.70;100862.66;5116458;28;20052;-72
2022/09/03 01:44:36;;;;;;;7.30;4.63;;;19.30;99.90;;;19.65;51.06;100882.81;5052946;28;20053;-72
2022/09/03 01:47:17;;;;;;;12.30;4.47;;;19.20;99.90;;;19.59;50.89;100876.81;5109468;28;20075;-72
2022/09/03 01:49:56;;;;;;;7.45;4.10;;;19.20;99.90;;;19.57;51.10;100879.56;5116467;28;20051;-71
2022/09/03 01:52:40;;;;;;;6.70;4.40;;;19.20;99.90;;;19.46;51.31;100879.16;5116083;28;20035;-71
2022/09/03 01:55:24;;;;;;;6.90;4.13;;;19.10;99.90;;;19.29;51.52;100851.22;5116175;28;20043;-72
2022/09/03 01:58:02;;;;;;;7.45;4.10;;;19.00;99.90;;;19.47;51.51;100874.66;5115947;28;20050;-72
2022/09/03 02:00:34;;;;;;;9.40;4.15;;;19.00;99.90;;;19.23;51.84;100876.50;5115868;28;20093;-72
2022/09/03 02:03:08;;;;;;;7.43;4.43;;;18.90;99.90;;;19.24;52.07;100880.06;5115733;28;20071;-72
2022/09/03 02:05:36;;;;;;;8.90;5.03;;;18.80;99.90;;;19.05;52.01;100852.22;5115818;28;20059;-72
2022/09/03 02:08:07;;;;;;;5.60;4.28;;;18.80;99.90;;;19.16;51.96;100879.47;5115570;28;20481;-72
2022/09/03 02:10:41;;;;;;;5.25;4.43;;;18.80;99.90;;;19.17;51.92;100874.03;5115691;27;20062;-72
2022/09/03 02:13:15;;;;;;;6.35;4.22;;;18.80;99.90;;;19.17;52.34;100874.03;5115713;27;20126;-72
2022/09/03 02:15:47;;;;;;;7.97;4.60;;;18.80;99.90;;;19.16;52.17;100874.09;5115586;28;20418;-72
2022/09/03 02:18:21;;;;;;;9.07;4.50;;;18.80;99.90;;;19.17;51.81;100876.72;5115419;28;20457;-72
2022/09/03 02:20:52;;;;;;;7.05;4.80;;;18.80;99.90;;;18.90;52.95;100870.63;5115445;28;20039;-72
2022/09/03 02:23:21;;;;;;;6.35;4.47;;;18.60;99.90;;;18.88;52.67;100839.44;5114240;28;20530;-72
2022/09/03 02:25:58;;;;;;;6.80;4.10;;;18.70;99.90;;;18.99;52.80;100864.03;5115330;28;20138;-72
2022/09/03 02:28:27;;;;;;;12.05;4.80;;;18.60;99.90;;;18.91;52.69;100864.31;5115409;28;20557;-72
2022/09/03 02:30:57;;;;;;;10.38;4.78;;;18.50;99.90;;;18.89;52.92;100868.03;5115455;28;20039;-72
2022/09/03 02:33:26;;;;;;;7.63;5.00;;;18.50;99.90;;;18.76;53.51;100859.56;5114135;28;20047;-72
2022/09/03 02:35:55;;;;;;;10.35;4.60;;;18.40;99.90;;;18.80;53.24;100850.47;5115241;28;20466;-72
2022/09/03 02:38:25;;;;;;;9.43;5.00;;;18.40;99.90;;;18.70;53.09;100838.34;5115149;28;20036;-72
2022/09/03 02:40:55;;;;;;;6.90;4.75;;;18.40;99.90;;;18.71;53.50;100874.06;5115032;28;20071;-72
2022/09/03 02:43:27;;;;;;;8.13;4.78;;;18.30;99.90;;;18.67;53.59;100859.91;5114925;27;20468;-72
2022/09/03 02:46:02;;;;;;;5.00;4.50;;;18.30;99.90;;;18.59;53.40;100863.81;5115082;28;20100;-72
2022/09/03 02:48:31;;;;;;;7.50;4.80;;;18.20;99.90;;;18.59;53.71;100864.69;5115032;28;20083;-72
2022/09/03 02:50:59;;;;;;;7.15;5.15;;;18.20;99.90;;;18.54;53.97;100845.22;5114816;28;20126;-71
2022/09/03 02:53:28;;;;;;;8.30;4.95;;;18.20;99.90;;;18.26;53.97;100816.78;5113768;28;20079;-72
2022/09/03 02:55:59;;;;;;;9.65;5.20;;;18.10;99.90;;;18.51;54.22;100861.41;5114872;28;20443;-72
2022/09/03 02:58:30;;;;;;;5.57;4.75;;;18.10;99.90;;;18.39;54.49;100872.53;5114785;28;20071;-71
2022/09/03 03:01:00;;;;;;;9.13;5.25;;;18.00;99.90;;;18.28;54.43;100839.91;5114815;28;20039;-71
2022/09/03 03:03:29;;;;;;;10.15;4.90;;;18.00;99.90;;;18.07;54.28;100796.97;5113418;28;20051;-72
2022/09/03 03:06:00;;;;;;;8.75;4.82;;;18.00;99.90;;;18.29;55.10;100846.16;5114609;28;20126;-72
2022/09/03 03:08:31;;;;;;;9.48;5.10;;;17.90;99.90;;;18.30;54.79;100842.53;5114801;28;20127;-72
2022/09/03 03:11:00;;;;;;;6.30;5.45;;;18.00;99.90;;;18.45;54.64;100850.03;5113367;28;20050;-72
2022/09/03 03:13:31;;;;;;;8.05;5.55;;;18.00;99.90;;;18.38;54.70;100856.53;5114443;28;20051;-72
2022/09/03 03:16:05;;;;;;;7.95;4.80;;;18.00;99.90;;;18.11;55.59;100823.59;5114436;28;20047;-72
2022/09/03 03:18:33;;;;;;;9.88;4.90;;;18.00;99.90;;;18.31;54.94;100853.19;5114700;28;20100;-72
2022/09/03 03:21:07;;;;;;;7.57;4.88;;;17.90;99.90;;;18.31;55.07;100852.34;5114319;28;20402;-72
2022/09/03 03:23:36;;;;;;;11.20;5.07;;;17.90;99.90;;;18.26;55.38;100859.63;5114461;28;20552;-72
2022/09/03 03:26:08;;;;;;;7.20;5.10;;;17.90;99.90;;;18.15;55.60;100862.72;5114380;28;20112;-72
2022/09/03 03:28:37;;;;;;;7.65;5.40;;;17.80;99.90;;;18.14;55.85;100858.28;5114111;28;20122;-72
2022/09/03 03:31:08;;;;;;;8.32;5.38;;;17.70;99.90;;;18.24;55.38;100858.81;5114397;28;20152;-72
2022/09/03 03:33:36;;;;;;;;;;;17.80;99.90;;;18.04;55.37;100830.97;5115052;28;20064;-72
2022/09/03 03:36:06;;;;;;;9.75;5.57;;;17.80;99.90;;;18.24;55.57;100866.84;5114007;28;19919;-72
2022/09/03 03:38:35;;;;;;;10.00;4.88;;;17.80;99.90;;;17.92;56.33;100859.97;5114118;28;20088;-72
2022/09/03 03:41:09;;;;;;;7.53;4.95;;;17.60;99.90;;;17.89;57.22;100858.28;5114000;28;20553;-72
2022/09/03 03:43:38;;;;;;;9.60;5.20;;;17.50;99.90;;;17.63;56.58;100809.25;5113710;28;20124;-72
2022/09/03 03:46:07;;;;;;;7.65;5.20;;;17.50;99.90;;;17.95;56.93;100857.19;5112748;28;20086;-72
2022/09/03 03:48:37;;;;;;;6.78;4.95;;;17.50;99.90;;;18.11;55.81;100858.41;5112589;28;20472;-72
2022/09/03 03:51:08;;;;;;;6.28;4.90;;;17.60;99.90;;;17.95;56.18;100857.19;5113669;28;20441;-72
2022/09/03 03:53:38;;;;;;;8.25;5.53;;;17.60;99.90;;;17.97;56.52;100856.22;5113406;28;20065;-72
2022/09/03 03:56:09;;;;;;;;;;;17.60;99.90;;;17.98;56.09;100833.00;5114156;28;20104;-72
2022/09/03 03:58:41;;;;;;;7.90;5.18;;;17.70;99.90;;;18.06;56.32;100854.13;5112588;28;19976;-72
2022/09/03 04:01:13;;;;;;;7.10;4.85;;;17.70;99.90;;;18.02;55.81;100822.09;5113735;28;20497;-72
2022/09/03 04:03:42;;;;;;;12.63;5.35;;;17.80;99.90;;;18.17;55.70;100851.94;5113664;28;20044;-72
2022/09/03 04:06:14;;;;;;;7.28;4.93;;;17.80;99.90;;;18.22;55.62;100856.22;5113437;28;20057;-72
2022/09/03 04:08:45;;;;;;;12.05;5.50;;;17.80;99.90;;;18.11;56.29;100853.03;5112369;28;20146;-72
2022/09/03 04:11:16;;;;;;;8.18;5.07;;;17.70;99.90;;;18.09;56.07;100852.22;5112256;28;20049;-72
2022/09/03 04:13:46;;;;;;;9.07;4.75;;;17.70;99.90;;;18.19;55.87;100840.25;5113569;28;20043;-72
2022/09/03 04:16:19;;;;;;;10.50;5.75;;;17.70;99.90;;;18.16;55.94;100856.41;5113726;28;20040;-72
2022/09/03 04:18:49;;;;;;;8.25;5.07;;;17.80;99.90;;;17.99;55.92;100846.31;5113298;28;20051;-72
2022/09/03 04:21:19;;;;;;;6.10;5.13;;;17.70;99.90;;;17.95;55.86;100819.72;5113766;28;20485;-72
2022/09/03 04:23:49;;;;;;;;;;;17.70;99.90;;;18.12;56.05;100849.44;5113838;28;20393;-72
2022/09/03 04:26:21;;;;;;;8.65;5.28;;;17.70;99.90;;;18.14;55.71;100850.25;5113597;28;19962;-72
2022/09/03 04:28:50;;;;;;;8.20;5.45;;;17.80;99.90;;;18.05;55.94;100853.25;5113168;28;20557;-72
2022/09/03 04:31:21;;;;;;;9.25;5.10;;;17.70;99.90;;;17.76;56.36;100831.97;5113121;28;20039;-72
2022/09/03 04:33:50;;;;;;;10.00;5.30;;;17.60;99.90;;;18.03;56.11;100852.44;5113120;28;20048;-72
2022/09/03 04:36:20;;;;;;;8.20;5.35;;;17.60;99.90;;;17.95;56.34;100847.34;5113258;28;20112;-72
2022/09/03 04:38:50;;;;;;;7.28;5.30;;;17.60;99.90;;;17.82;56.26;100826.44;5113119;28;20077;-72
2022/09/03 04:41:21;;;;;;;9.82;4.70;;;17.60;99.90;;;17.98;56.31;100843.72;5113195;28;20051;-72
2022/09/03 04:43:51;;;;;;;7.50;5.45;;;17.60;99.90;;;17.57;56.82;100796.97;5112757;28;20066;-72
2022/09/03 04:46:24;;;;;;;6.97;5.43;;;17.50;99.90;;;17.85;56.59;100843.25;5113144;28;20130;-72
2022/09/03 04:48:55;;;;;;;8.13;5.82;;;17.50;99.90;;;17.93;56.34;100851.00;5113062;28;20350;-72
2022/09/03 04:51:27;;;;;;;7.85;4.95;;;17.50;99.90;;;17.92;56.53;100854.63;5113028;28;20050;-72
2022/09/03 04:53:58;;;;;;;8.15;4.93;;;17.50;99.90;;;17.77;56.43;100839.06;5113023;28;20086;-72
2022/09/03 04:56:30;;;;;;;7.10;5.10;;;17.40;99.90;;;17.68;56.84;100845.63;5112896;28;20131;-72
2022/09/03 04:59:00;;;;;;;7.40;5.53;;;17.30;99.90;;;17.77;56.75;100860.47;5112987;28;20569;-72
2022/09/03 05:01:32;;;;;;;;;;;17.40;99.90;;;17.69;57.76;100850.03;5112118;28;20052;-72
2022/09/03 05:04:01;;;;;;;7.20;5.30;;;17.30;99.90;;;17.62;57.30;100861.00;5112930;28;20010;-72
2022/09/03 05:06:31;;;;;;;11.18;5.60;;;17.20;99.90;;;17.59;57.54;100853.97;5114674;28;20142;-72
2022/09/03 05:09:00;;;;;;;9.95;5.55;;;17.20;99.90;;;17.60;57.35;100857.50;5117177;27;20040;-72
2022/09/03 05:11:29;;;;;;;7.00;5.22;;;17.20;99.90;;;17.27;58.02;100832.69;5115746;28;20051;-72
2022/09/03 05:13:59;;;;;;;6.53;5.32;;;17.10;99.90;;;17.32;58.05;100868.22;5116811;28;20040;-72
2022/09/03 05:16:30;;;;;;;10.80;5.57;;;17.00;99.90;;;17.29;58.09;100854.03;5116792;28;20484;-72
2022/09/03 05:19:00;;;;;;;13.45;5.85;;;16.90;99.90;;;17.38;58.17;100869.81;5116939;28;20056;-72
2022/09/03 05:21:30;;;;;;;6.53;5.43;;;17.00;99.90;;;17.27;58.54;100864.78;5117018;28;20043;-71
2022/09/03 05:24:01;;;;;;;8.52;5.35;;;16.90;99.90;;;17.48;58.08;100860.56;5116914;28;20043;-72
2022/09/03 05:26:32;;;;;;;11.68;5.47;;;17.00;99.90;;;17.45;58.20;100857.97;5116628;28;20058;-72
2022/09/03 05:29:04;;;;;;;6.65;5.15;;;17.00;99.90;;;17.60;58.15;100852.16;5116658;28;20098;-72
2022/09/03 05:31:37;;;;;;;9.32;5.53;;;17.10;99.90;;;17.64;57.64;100857.34;5115196;28;20139;-72
2022/09/03 05:34:08;;;;;;;10.57;5.38;;;17.20;99.90;;;17.65;57.70;100861.75;5116504;28;20127;-72
2022/09/03 05:36:39;;;;;;;6.68;5.65;;;17.20;99.90;;;17.75;57.52;100852.50;5116854;28;20116;-72
2022/09/03 05:39:07;;;;;;;6.15;4.82;;;17.30;99.90;;;17.75;57.31;100846.31;5116755;28;20043;-72
2022/09/03 05:41:35;;;;;;;9.95;4.97;;;17.30;99.90;;;17.68;57.61;100839.38;5116267;28;20046;-72
2022/09/03 05:44:04;;;;;;;9.30;5.72;;;17.30;99.90;;;17.81;57.32;100851.41;5116154;28;20057;-72
2022/09/03 05:46:35;;;;;;;8.70;5.82;;;17.40;99.90;;;17.96;56.79;100856.25;5116367;28;20088;-72
2022/09/03 05:49:06;;;;;;;6.88;4.90;;;17.60;99.90;;;17.92;57.15;100854.63;5116091;28;20097;-72
2022/09/03 05:51:36;;;;;;;;;;;17.50;99.90;;;17.94;56.57;100858.13;5115382;28;20456;-72
2022/09/03 05:54:04;;;;;;;7.50;5.15;;;17.60;99.90;;;18.01;56.73;100827.53;5116042;28;19920;-72
2022/09/03 05:56:34;;;;;;;8.73;5.43;;;17.70;99.90;;;17.65;55.89;100754.75;5116017;28;20118;-72
2022/09/03 05:59:08;;;;;;;10.55;5.82;;;17.90;99.90;;;18.27;56.39;100851.56;5116179;28;20071;-72
2022/09/03 06:01:40;;;;;;;12.05;6.13;;;17.80;99.90;;;18.64;55.54;100868.06;5114637;28;20048;-72
2022/09/03 06:04:18;;;;;;;10.13;5.13;;;18.10;99.90;;;18.37;55.64;100826.19;5115877;28;20492;-72
2022/09/03 06:06:48;;;;;;;8.50;5.05;;;18.20;99.90;;;18.69;55.76;100879.50;5115858;28;20100;-72
2022/09/03 06:09:19;;;;;;;7.22;4.80;;;18.20;99.90;;;18.66;55.09;100884.09;5115606;28;20043;-72
2022/09/03 06:11:48;;;;;;;11.98;4.85;;;18.20;99.90;;;18.88;55.17;100877.88;5115993;28;20043;-72
2022/09/03 06:14:17;;;;;;;7.65;4.90;;;18.30;99.90;;;19.02;54.77;100887.19;5115746;28;20461;-72
2022/09/03 06:16:48;;;;;;;15.77;5.40;;;18.40;99.90;;;18.95;54.88;100883.84;5113910;28;20590;-72
2022/09/03 06:19:18;;;;;;;7.63;5.03;;;18.40;99.90;;;19.16;54.65;100887.53;5115639;28;20031;-71
2022/09/03 06:21:47;;;;;;;8.52;5.65;;;18.60;99.90;;;19.26;54.02;100862.94;5115399;28;20047;-72
2022/09/03 06:24:17;;;;;;;15.60;5.15;;;18.80;99.90;;;19.28;53.65;100844.13;5115342;28;20540;-71
2022/09/03 06:26:45;;;;;;;22.88;5.28;;;19.00;99.90;;;19.58;54.05;100886.72;5114238;28;20524;-71
2022/09/03 06:29:14;;;;;;;6.47;4.65;;;19.10;99.90;;;19.53;53.85;100891.38;5115462;28;20576;-72
2022/09/03 06:31:42;;;;;;;7.65;4.63;;;19.10;99.90;;;19.52;53.63;100859.25;5115207;28;20508;-72
2022/09/03 06:34:12;;;;;;;6.57;4.72;;;19.30;99.90;;;19.90;53.72;100888.03;5115138;28;20046;-71
2022/09/03 06:36:41;;;;;;;8.60;5.83;;;19.40;99.90;;;19.91;53.26;100887.09;5115400;28;20053;-71
2022/09/03 06:39:09;;;;;;;9.55;5.28;;;19.50;99.90;;;20.05;52.53;100892.78;5115203;28;20047;-72
2022/09/03 06:41:38;;;;;;;10.70;5.00;;;19.50;99.90;;;20.35;51.96;100888.78;5113932;28;20044;-69
2022/09/03 06:44:11;;;;;;;7.88;4.47;;;19.90;99.90;;;20.34;52.28;100888.84;5115126;28;20105;-70
2022/09/03 06:46:41;;;;;;;6.22;4.78;;;19.90;99.90;;;19.96;52.83;100871.66;5114801;28;20100;-69
2022/09/03 06:49:12;;;;;;;7.35;4.75;;;19.70;99.90;;;20.56;52.02;100905.75;5115070;28;20055;-70
2022/09/03 06:51:42;;;;;;;8.05;4.93;;;20.00;99.90;;;20.73;51.89;100900.47;5115040;28;20127;-66
2022/09/03 06:54:12;;;;;;;9.38;4.72;;;20.20;99.90;;;20.67;52.00;100907.00;5114868;28;20512;-66
2022/09/03 06:56:41;;;;;;;10.48;5.15;;;20.20;99.90;;;20.16;52.84;100911.09;5114779;28;20043;-66
2022/09/03 06:59:12;;;;;;;6.32;4.85;;;19.80;99.90;;;20.45;53.04;100908.06;5114646;28;20097;-66
2022/09/03 07:01:42;;;;;;;7.80;4.35;;;19.80;99.90;;;20.64;52.19;100907.16;5114800;28;20047;-65
2022/09/03 07:04:16;;;;;;;7.70;5.10;;;20.00;99.90;;;20.57;51.87;100894.06;5114670;28;20052;-66
2022/09/03 07:06:47;;;;;;;6.85;4.70;;;20.10;99.90;;;20.83;51.28;100903.66;5114012;28;20039;-66
2022/09/03 07:09:17;;;;;;;12.63;4.85;;;20.40;99.90;;;20.60;51.92;100881.38;5114467;28;20093;-66
2022/09/03 07:11:48;;;;;;;8.50;4.90;;;20.30;99.90;;;20.83;52.13;100911.72;5114362;28;20096;-66
2022/09/03 07:14:18;;;;;;;6.43;4.55;;;20.30;99.90;;;20.71;51.81;100909.59;5114993;28;20082;-65
2022/09/03 07:16:47;;;;;;;7.60;4.78;;;20.40;99.90;;;20.68;51.72;100906.09;5114158;28;20047;-66
2022/09/03 07:19:17;;;;;;;6.15;4.30;;;20.30;99.90;;;20.50;52.99;100901.53;5114176;27;20130;-64
2022/09/03 07:21:46;;;;;;;5.40;4.63;;;20.10;99.90;;;20.35;52.26;100844.91;5114427;28;20044;-65
2022/09/03 07:24:20;;;;;;;9.02;4.50;;;20.20;99.90;;;20.79;51.91;100881.38;5114222;28;20035;-64
2022/09/03 07:26:49;;;;;;;5.55;4.97;;;20.40;99.90;;;20.51;51.10;100794.91;5114070;28;20043;-63
2022/09/03 07:29:20;;;;;;;7.40;4.50;;;20.70;99.90;;;20.96;50.84;100894.06;5112070;28;20052;-68
2022/09/03 07:31:50;;;;;;;;;;;20.60;99.90;;;21.16;51.17;100918.22;5114476;28;20608;-66
2022/09/03 07:34:24;;;;;;;7.45;4.68;;;20.60;99.90;;;21.29;51.83;100914.03;5114009;28;19926;-65
2022/09/03 07:36:54;;;;;;;5.45;4.25;;;20.70;99.90;;;21.00;51.87;100915.34;5114016;28;20497;-64
2022/09/03 07:39:22;;;;;;;9.30;4.80;;;20.60;99.90;;;21.52;50.61;100914.66;5113899;28;20126;-63
2022/09/03 07:41:51;;;;;;;5.22;4.72;;;20.90;99.90;;;21.43;51.48;100914.22;5113805;28;20040;-62
2022/09/03 07:44:19;;;;;;;8.55;4.90;;;20.90;99.90;;;21.60;49.84;100914.31;5112221;28;20052;-65
2022/09/03 07:46:49;;;;;;;5.40;4.43;;;21.20;99.90;;;21.43;50.44;100909.72;5113683;28;20420;-67
2022/09/03 07:49:19;;;;;;;;;;;21.00;99.90;;;21.29;52.57;100914.88;5114009;28;20579;-68
2022/09/03 07:51:52;;;;;;;6.93;5.20;;;20.90;99.90;;;21.48;51.16;100907.69;5112505;28;19926;-65
2022/09/03 07:54:22;;;;;;;5.32;4.10;;;21.00;99.90;;;21.80;50.80;100926.75;5113807;28;20062;-66
2022/09/03 07:56:51;;;;;;;7.95;4.82;;;21.20;99.90;;;22.07;50.36;100923.59;5112412;28;20071;-67
2022/09/03 07:59:21;;;;;;;7.53;4.80;;;21.50;99.90;;;21.67;49.91;100901.41;5113622;28;20067;-66
2022/09/03 08:01:51;;;;;;;5.35;4.20;;;21.40;99.90;;;21.88;49.75;100935.38;5113460;28;20042;-66
2022/09/03 08:04:20;;;;;;;6.93;4.55;;;21.40;99.90;;;21.97;50.13;100934.94;5114004;27;20142;-66
2022/09/03 08:06:54;;;;;;;8.90;4.95;;;21.40;99.90;;;22.15;50.14;100934.88;5113397;28;20035;-66
2022/09/03 08:09:23;;;;;;;8.65;4.50;;;21.60;99.90;;;21.70;48.50;100915.56;5113316;28;20055;-66
2022/09/03 08:11:51;;;;;;;9.98;4.65;;;21.50;99.90;;;22.03;50.81;100931.91;5113224;28;20044;-66
2022/09/03 08:14:20;;;;;;;7.32;4.47;;;21.50;99.90;;;22.55;48.77;100933.66;5113217;28;20044;-66
2022/09/03 08:16:49;;;;;;;5.55;4.00;;;22.00;99.90;;;22.82;48.75;100934.06;5113441;28;20071;-66
2022/09/03 08:19:19;;;;;;;9.20;4.13;;;22.20;99.90;;;22.97;48.29;100935.94;5113425;28;20150;-66
2022/09/03 08:21:52;;;;;;;4.65;4.15;;;22.50;99.90;;;22.03;47.86;100833.09;5113337;28;20053;-66
2022/09/03 08:24:23;;;;;;;7.70;4.53;;;22.30;99.90;;;22.48;48.02;100936.75;5113212;28;20114;-67
2022/09/03 08:26:53;;;;;;;5.88;4.60;;;22.00;99.90;;;22.21;48.28;100918.38;5113177;28;20044;-67
2022/09/03 08:29:22;;;;;;;5.55;4.40;;;21.90;99.90;;;22.75;48.49;100935.34;5111999;28;20470;-67
2022/09/03 08:31:50;;;;;;;7.15;4.28;;;22.20;99.90;;;22.68;48.69;100947.41;5113274;28;20374;-68
2022/09/03 08:34:20;;;;;;;8.00;4.60;;;22.30;99.90;;;22.65;48.09;100955.69;5112931;28;20051;-67
2022/09/03 08:36:51;;;;;;;8.95;4.60;;;22.10;99.90;;;22.53;48.09;100945.50;5113161;28;20389;-67
2022/09/03 08:39:22;;;;;;;9.93;5.03;;;22.10;99.90;;;23.06;48.14;100952.50;5112727;28;20523;-67
2022/09/03 08:42:43;;;;;;;7.80;4.72;;;22.50;99.90;;;23.41;47.43;100937.09;5113000;28;20077;-68
2022/09/03 08:45:17;;;;;;;8.32;4.10;;;22.90;99.90;;;23.03;46.45;100962.59;5073727;28;20105;-67
2022/09/03 08:47:50;;;;;;;7.00;4.30;;;22.80;99.90;;;22.97;47.86;100958.41;5112918;28;20443;-67
2022/09/03 08:50:25;;;;;;;7.32;3.88;;;22.50;99.90;;;23.42;47.38;100941.53;5112869;28;20501;-67
2022/09/03 08:52:59;;;;;;;7.18;4.43;;;22.80;99.90;;;23.75;46.83;100960.38;5112887;28;20126;-67
2022/09/03 08:55:29;;;;;;;8.07;4.47;;;23.30;99.90;;;23.54;45.66;100959.72;5112988;28;20055;-67
2022/09/03 08:58:04;;;;;;;6.75;4.25;;;23.20;99.90;;;23.45;46.63;100949.47;5112745;28;20085;-67
2022/09/03 09:00:45;;;;;;;10.07;4.35;;;22.90;99.90;;;23.74;45.71;100951.38;5112814;28;20059;-67
2022/09/03 09:03:30;;;;;;;;;;;23.30;99.90;;;23.71;47.18;100958.78;5113265;28;20048;-67
2022/09/03 09:06:08;;;;;;;10.93;4.32;;;23.10;99.90;;;23.36;46.94;100949.09;5112892;28;19924;-67
2022/09/03 09:08:52;;;;;;;9.45;5.03;;;23.00;99.90;;;23.81;46.13;100960.88;5111403;28;20051;-67
2022/09/03 09:11:40;;;;;;;8.48;4.20;;;23.30;99.90;;;23.22;46.53;100920.13;5112645;28;20048;-67
2022/09/03 09:14:19;;;;;;;7.30;4.13;;;23.20;99.90;;;23.72;45.92;100945.19;5112745;28;20057;-67
2022/09/03 09:17:01;;;;;;;16.38;4.13;;;23.30;99.90;;;23.96;45.59;100959.13;5112601;28;20767;-67
2022/09/03 09:19:42;;;;;;;6.40;4.15;;;23.50;99.90;;;23.87;45.96;100957.81;5112861;28;20420;-67
2022/09/03 09:22:16;;;;;;;10.48;4.50;;;23.50;99.90;;;23.93;46.60;100957.47;5112590;28;20169;-67
2022/09/03 09:24:48;;;;;;;7.57;4.35;;;23.50;99.90;;;23.88;47.01;100966.78;5111326;28;20138;-67
2022/09/03 09:27:19;;;;;;;6.88;4.53;;;23.40;99.90;;;23.78;47.30;100973.69;5112448;28;20044;-67
2022/09/03 09:29:50;;;;;;;6.60;4.25;;;23.40;99.90;;;23.76;46.47;100952.16;5112520;28;20114;-67
2022/09/03 09:32:20;;;;;;;9.77;4.53;;;23.40;99.90;;;23.88;46.09;100937.94;5112684;28;20047;-67
2022/09/03 09:34:50;;;;;;;8.88;4.50;;;23.50;99.90;;;24.01;46.14;100974.09;5112636;28;20131;-67
2022/09/03 09:37:20;;;;;;;8.88;4.10;;;23.50;99.90;;;24.08;46.30;100972.81;5112548;28;20036;-67
2022/09/03 09:40:03;;;;;;;5.75;4.20;;;23.60;99.90;;;24.51;46.97;100971.13;5112394;28;20044;-67
2022/09/03 09:42:32;;;;;;;11.82;5.00;;;23.90;99.90;;;24.48;45.02;100956.94;5112697;28;20458;-67
2022/09/03 09:45:10;;;;;;;11.05;4.05;;;24.00;99.90;;;24.44;45.26;100958.06;5112285;28;20073;-67
2022/09/03 09:47:40;;;;;;;9.20;4.82;;;24.10;99.90;;;24.28;44.47;100932.91;5112411;28;20097;-67
2022/09/03 09:50:20;;;;;;;5.93;4.47;;;24.00;99.90;;;24.10;45.52;100934.88;5112202;28;20451;-67
2022/09/03 09:53:07;;;;;;;5.28;4.28;;;23.80;99.90;;;24.38;44.95;100964.72;5116131;28;20043;-67
2022/09/03 09:55:48;;;;;;;6.30;4.15;;;24.00;99.90;;;24.20;46.08;100960.41;5116141;28;20036;-67
2022/09/03 09:58:22;;;;;;;9.23;4.40;;;23.70;99.90;;;24.32;46.56;100965.09;5114701;28;20910;-67
2022/09/03 10:01:11;;;;;;;13.35;4.93;;;23.80;99.90;;;24.15;45.18;100970.63;5114597;28;20055;-67
2022/09/03 10:03:49;;;;;;;11.98;4.45;;;23.70;99.90;;;24.15;45.31;100965.22;5115970;28;20511;-67
2022/09/03 10:09:10;;;;;;;8.85;4.85;;;23.90;99.90;;;24.66;44.92;100953.97;5114510;28;20055;-67
2022/09/03 10:11:44;;;;;;;7.93;5.07;;;24.30;99.90;;;23.74;44.89;100869.44;5115832;28;20130;-67
2022/09/03 10:14:23;;;;;;;6.03;4.95;;;24.00;99.90;;;24.50;45.18;100968.53;5115751;28;20051;-67
2022/09/03 10:17:01;;;;;;;6.05;4.30;;;23.90;99.90;;;24.50;45.03;100949.59;5115734;28;20044;-68
2022/09/03 10:19:41;;;;;;;6.80;5.10;;;24.00;99.90;;;24.59;44.67;100966.13;5115831;28;20497;-67
2022/09/03 10:22:17;;;;;;;8.98;4.60;;;24.10;99.90;;;24.61;44.42;100960.63;5115728;28;20040;-67
2022/09/03 10:24:58;;;;;;;7.72;5.03;;;24.10;99.90;;;24.24;44.24;100888.09;5115437;28;20036;-67
2022/09/03 10:27:28;;;;;;;;;;;24.20;99.90;;;24.75;44.40;100966.09;5114480;28;20504;-67
2022/09/03 10:29:59;;;;;;;6.50;4.60;;;24.30;99.90;;;24.81;44.95;100944.97;5115261;28;20292;-67
2022/09/03 10:32:38;;;;;;;6.85;4.40;;;24.40;99.90;;;24.96;44.42;100967.50;5114256;28;20126;-67
2022/09/03 10:35:21;;;;;;;7.15;4.88;;;24.40;99.90;;;24.85;45.31;100970.84;5115542;28;20055;-67
2022/09/03 10:38:05;;;;;;;9.15;5.13;;;24.40;99.90;;;25.32;44.13;100965.16;5115301;28;20118;-67
2022/09/03 10:40:40;;;;;;;7.40;4.90;;;24.80;99.90;;;25.60;44.16;100986.84;5115204;28;20058;-67
2022/09/03 10:43:40;;;;;;;7.38;4.38;;;25.00;99.90;;;25.74;43.23;100978.72;5115083;28;20130;-67
2022/09/03 10:46:16;;;;;;;7.32;4.68;;;25.20;99.90;;;25.86;42.99;100953.47;5115166;28;20071;-67